createdAt,value
2019-02-20T00:01:04.542Z,5.60
2019-02-20T00:03:35.259Z,5.60
2019-02-20T00:06:05.749Z,5.60
2019-02-20T00:08:36.133Z,5.50
2019-02-20T00:11:06.533Z,5.50
2019-02-20T00:13:36.898Z,5.50
2019-02-20T00:16:07.290Z,5.50
2019-02-20T00:18:37.646Z,5.50
2019-02-20T00:21:08.035Z,5.50
2019-02-20T00:23:38.394Z,5.50
2019-02-20T00:26:08.818Z,5.40
2019-02-20T00:28:39.182Z,5.40
2019-02-20T00:31:09.576Z,5.40
2019-02-20T00:33:39.964Z,5.40
2019-02-20T00:36:10.349Z,5.30
2019-02-20T00:38:40.699Z,5.20
2019-02-20T00:41:11.080Z,5.30
2019-02-20T00:43:43.009Z,5.20
2019-02-20T00:46:21.911Z,5.10
2019-02-20T00:49:06.465Z,5.20
2019-02-20T00:52:04.845Z,5.00
2019-02-20T00:54:35.193Z,4.70
2019-02-20T00:57:05.599Z,4.60
2019-02-20T00:59:36.004Z,4.60
2019-02-20T01:02:06.406Z,4.70
2019-02-20T01:04:36.779Z,4.90
2019-02-20T01:07:07.212Z,4.90
2019-02-20T01:09:37.579Z,4.90
2019-02-20T01:12:08.037Z,4.90
2019-02-20T01:14:38.420Z,5.00
2019-02-20T01:17:08.899Z,4.90
2019-02-20T01:19:39.290Z,5.00
2019-02-20T01:22:09.665Z,5.00
2019-02-20T01:24:40.073Z,5.00
2019-02-20T01:27:10.498Z,5.10
2019-02-20T01:29:40.886Z,5.00
2019-02-20T01:32:11.252Z,5.00
2019-02-20T01:34:41.625Z,4.90
2019-02-20T01:37:12.049Z,4.90
2019-02-20T01:39:42.448Z,4.90
2019-02-20T01:42:12.875Z,4.90
2019-02-20T01:44:43.253Z,5.00
2019-02-20T01:47:13.632Z,4.80
2019-02-20T01:49:44.009Z,4.70
2019-02-20T01:52:14.402Z,4.80
2019-02-20T01:54:44.800Z,4.80
2019-02-20T01:57:15.210Z,4.70
2019-02-20T01:59:45.682Z,4.80
2019-02-20T02:02:16.099Z,4.80
2019-02-20T02:04:46.495Z,4.80
2019-02-20T02:07:16.877Z,4.80
2019-02-20T02:09:47.297Z,4.80
2019-02-20T02:12:17.684Z,4.70
2019-02-20T02:14:48.083Z,4.60
2019-02-20T02:17:18.449Z,4.70
2019-02-20T02:19:48.858Z,4.80
2019-02-20T02:22:19.255Z,4.80
2019-02-20T02:24:49.642Z,4.80
2019-02-20T02:27:20.029Z,4.70
2019-02-20T02:29:50.432Z,4.70
2019-02-20T02:32:20.822Z,4.60
2019-02-20T02:34:52.086Z,4.40
2019-02-20T02:37:22.469Z,4.20
2019-02-20T02:39:52.851Z,4.30
2019-02-20T02:42:23.229Z,4.40
2019-02-20T02:44:53.623Z,4.50
2019-02-20T02:47:24.100Z,4.40
2019-02-20T02:49:54.510Z,4.40
2019-02-20T02:52:24.894Z,4.40
2019-02-20T02:54:55.294Z,4.40
2019-02-20T02:57:25.663Z,4.50
2019-02-20T02:59:56.061Z,4.50
2019-02-20T03:02:26.424Z,4.30
2019-02-20T03:04:56.886Z,4.40
2019-02-20T03:07:27.341Z,4.40
2019-02-20T03:09:57.730Z,4.40
2019-02-20T03:12:28.092Z,4.40
2019-02-20T03:14:58.437Z,4.40
2019-02-20T03:17:28.855Z,4.40
2019-02-20T03:19:59.252Z,4.30
2019-02-20T03:22:29.631Z,4.30
2019-02-20T03:24:59.985Z,4.30
2019-02-20T03:27:30.371Z,4.10
2019-02-20T03:30:00.731Z,4.10
2019-02-20T03:32:31.169Z,4.10
2019-02-20T03:35:01.625Z,4.20
2019-02-20T03:37:32.015Z,4.10
2019-02-20T03:40:02.414Z,4.00
2019-02-20T03:42:32.833Z,4.10
2019-02-20T03:45:03.191Z,4.10
2019-02-20T03:47:33.566Z,4.10
2019-02-20T03:50:03.954Z,4.10
2019-02-20T03:52:34.351Z,3.90
2019-02-20T03:55:04.955Z,3.80
2019-02-20T03:57:35.358Z,3.70
2019-02-20T04:00:06.384Z,3.70
2019-02-20T04:02:36.760Z,3.80
2019-02-20T04:05:07.237Z,3.70
2019-02-20T04:07:37.617Z,3.50
2019-02-20T04:10:09.113Z,3.40
2019-02-20T04:12:39.739Z,3.60
2019-02-20T04:15:10.170Z,3.80
2019-02-20T04:17:40.654Z,3.80
2019-02-20T04:20:11.071Z,3.90
2019-02-20T04:22:41.456Z,3.80
2019-02-20T04:25:11.835Z,3.90
2019-02-20T04:27:42.260Z,4.00
2019-02-20T04:30:12.610Z,4.00
2019-02-20T04:32:43.011Z,4.00
2019-02-20T04:35:13.404Z,4.10
2019-02-20T04:37:43.822Z,4.10
2019-02-20T04:40:17.333Z,4.10
2019-02-20T04:42:47.731Z,4.20
2019-02-20T04:45:18.185Z,4.20
2019-02-20T04:47:48.573Z,4.20
2019-02-20T04:50:18.931Z,4.30
2019-02-20T04:52:49.307Z,4.30
2019-02-20T04:55:19.666Z,4.30
2019-02-20T04:58:13.951Z,4.30
2019-02-20T05:00:44.424Z,4.40
2019-02-20T05:03:14.788Z,4.40
2019-02-20T05:05:45.372Z,4.40
2019-02-20T05:08:15.901Z,4.40
2019-02-20T05:10:46.400Z,4.50
2019-02-20T05:13:16.832Z,4.50
2019-02-20T05:15:47.344Z,4.60
2019-02-20T05:18:17.789Z,4.40
2019-02-20T05:20:48.278Z,4.50
2019-02-20T05:23:18.749Z,4.40
2019-02-20T05:25:49.191Z,4.40
2019-02-20T05:28:19.613Z,4.30
2019-02-20T05:30:50.113Z,4.30
2019-02-20T05:33:20.627Z,4.30
2019-02-20T05:35:51.078Z,4.30
2019-02-20T05:38:21.535Z,4.30
2019-02-20T05:40:51.906Z,4.30
2019-02-20T05:43:22.310Z,4.30
2019-02-20T05:45:52.690Z,4.30
2019-02-20T05:48:23.103Z,4.10
2019-02-20T05:50:53.538Z,4.10
2019-02-20T05:53:23.940Z,4.10
2019-02-20T05:55:54.435Z,4.20
2019-02-20T05:58:24.832Z,4.30
2019-02-20T06:00:55.699Z,4.30
2019-02-20T06:03:26.152Z,4.30
2019-02-20T06:05:56.549Z,4.30
2019-02-20T06:08:26.998Z,4.40
2019-02-20T06:10:57.461Z,4.40
2019-02-20T06:13:27.838Z,4.40
2019-02-20T06:15:58.224Z,4.50
2019-02-20T06:18:28.720Z,4.50
2019-02-20T06:20:59.206Z,4.50
2019-02-20T06:23:29.601Z,4.50
2019-02-20T06:25:59.990Z,4.50
2019-02-20T06:28:30.364Z,4.30
2019-02-20T06:31:00.827Z,4.50
2019-02-20T06:33:31.185Z,4.50
2019-02-20T06:36:01.649Z,4.60
2019-02-20T06:38:32.043Z,4.60
2019-02-20T06:41:02.513Z,4.70
2019-02-20T06:43:33.377Z,4.50
2019-02-20T06:46:03.799Z,4.60
2019-02-20T06:48:34.173Z,4.70
2019-02-20T06:51:04.570Z,4.60
2019-02-20T06:53:35.026Z,4.50
2019-02-20T06:56:05.402Z,4.50
2019-02-20T06:58:35.814Z,4.50
2019-02-20T07:01:06.200Z,4.50
2019-02-20T07:03:36.606Z,4.60
2019-02-20T07:06:50.975Z,4.60
2019-02-20T07:10:07.357Z,4.70
2019-02-20T07:13:20.746Z,4.80
2019-02-20T07:16:07.797Z,4.60
2019-02-20T07:19:23.912Z,4.70
2019-02-20T07:22:25.894Z,4.70
2019-02-20T07:25:33.233Z,4.70
2019-02-20T07:28:48.130Z,4.70
2019-02-20T07:31:18.530Z,4.80
2019-02-20T07:33:49.018Z,4.90
2019-02-20T07:36:19.481Z,4.90
2019-02-20T07:38:49.898Z,4.90
2019-02-20T07:41:20.293Z,4.90
2019-02-20T07:43:50.721Z,4.90
2019-02-20T07:46:21.150Z,5.00
2019-02-20T07:48:51.546Z,5.10
2019-02-20T07:51:21.922Z,5.20
2019-02-20T07:53:52.333Z,5.30
2019-02-20T07:56:24.060Z,5.40
2019-02-20T07:58:54.665Z,5.50
2019-02-20T08:01:25.090Z,5.70
2019-02-20T08:03:55.543Z,5.90
2019-02-20T08:06:26.011Z,6.00
2019-02-20T08:08:56.402Z,6.30
2019-02-20T08:11:26.770Z,6.60
2019-02-20T08:13:57.152Z,6.90
2019-02-20T08:16:27.533Z,7.20
2019-02-20T08:18:57.945Z,7.50
2019-02-20T08:21:28.397Z,7.80
2019-02-20T08:23:58.795Z,7.90
2019-02-20T08:26:29.182Z,8.00
2019-02-20T08:28:59.559Z,8.00
2019-02-20T08:31:29.957Z,8.00
2019-02-20T08:34:00.338Z,7.80
2019-02-20T08:36:30.782Z,7.90
2019-02-20T08:39:01.204Z,7.90
2019-02-20T08:41:31.648Z,8.00
2019-02-20T08:44:02.149Z,8.20
2019-02-20T08:46:32.520Z,8.40
2019-02-20T08:49:02.905Z,8.40
2019-02-20T08:51:33.318Z,8.40
2019-02-20T08:54:04.441Z,8.50
2019-02-20T08:56:35.214Z,8.70
2019-02-20T08:59:05.670Z,8.70
2019-02-20T09:01:36.098Z,8.70
2019-02-20T09:04:06.662Z,8.70
2019-02-20T09:06:37.053Z,8.90
2019-02-20T09:09:07.573Z,8.90
2019-02-20T09:11:37.994Z,9.00
2019-02-20T09:14:08.635Z,9.30
2019-02-20T09:16:39.117Z,9.40
2019-02-20T09:19:09.492Z,9.20
2019-02-20T09:21:39.951Z,9.00
2019-02-20T09:24:10.309Z,9.20
2019-02-20T09:26:40.754Z,9.30
2019-02-20T09:29:11.116Z,9.40
2019-02-20T09:31:41.516Z,9.60
2019-02-20T09:34:11.911Z,9.70
2019-02-20T09:36:42.290Z,10.00
2019-02-20T09:39:31.491Z,10.20
2019-02-20T09:42:01.966Z,10.30
2019-02-20T09:44:35.501Z,10.60
2019-02-20T09:47:05.865Z,10.90
2019-02-20T09:49:36.262Z,11.20
2019-02-20T09:52:06.664Z,11.40
2019-02-20T09:54:37.049Z,11.60
2019-02-20T09:57:07.449Z,11.70
2019-02-20T09:59:37.873Z,11.90
2019-02-20T10:02:08.238Z,12.10
2019-02-20T10:04:38.642Z,12.20
2019-02-20T10:07:09.041Z,12.30
2019-02-20T10:09:39.408Z,12.60
2019-02-20T10:12:09.799Z,12.60
2019-02-20T10:14:40.445Z,13.00
2019-02-20T10:17:11.060Z,13.10
2019-02-20T10:19:41.434Z,13.30
2019-02-20T10:22:11.801Z,13.50
2019-02-20T10:24:42.174Z,13.80
2019-02-20T10:27:12.588Z,14.00
2019-02-20T10:29:42.975Z,14.10
2019-02-20T10:32:13.363Z,14.30
2019-02-20T10:34:43.745Z,14.50
2019-02-20T10:37:14.145Z,14.40
2019-02-20T10:39:44.529Z,14.40
2019-02-20T10:42:14.894Z,14.50
2019-02-20T10:44:45.274Z,14.60
2019-02-20T10:47:15.638Z,14.60
2019-02-20T10:49:46.025Z,14.50
2019-02-20T10:52:16.385Z,14.40
2019-02-20T10:54:46.763Z,14.50
2019-02-20T10:57:17.153Z,14.70
2019-02-20T10:59:47.521Z,14.50
2019-02-20T11:02:18.031Z,14.30
2019-02-20T11:04:50.126Z,14.90
2019-02-20T11:07:20.618Z,16.00
2019-02-20T11:09:51.066Z,16.60
2019-02-20T11:12:21.409Z,17.80
2019-02-20T11:14:51.830Z,18.90
2019-02-20T11:17:22.186Z,19.50
2019-02-20T11:19:52.561Z,19.70
2019-02-20T11:22:22.986Z,19.70
2019-02-20T11:24:53.857Z,19.00
2019-02-20T11:27:24.378Z,17.80
2019-02-20T11:29:54.759Z,17.10
2019-02-20T11:32:25.159Z,16.60
2019-02-20T11:34:55.539Z,16.40
2019-02-20T11:37:25.921Z,16.60
2019-02-20T11:39:56.278Z,16.60
2019-02-20T11:42:26.653Z,16.30
2019-02-20T11:44:57.022Z,16.00
2019-02-20T11:47:27.413Z,15.70
2019-02-20T11:49:57.789Z,15.30
2019-02-20T11:52:28.163Z,15.20
2019-02-20T11:54:58.539Z,15.00
2019-02-20T11:57:28.917Z,14.70
2019-02-20T11:59:59.407Z,14.70
2019-02-20T12:02:37.312Z,14.50
2019-02-20T12:05:01.876Z,14.40
2019-02-20T12:07:32.341Z,14.30
2019-02-20T12:10:02.728Z,14.10
2019-02-20T12:12:33.200Z,14.10
2019-02-20T12:15:03.686Z,14.40
2019-02-20T12:17:34.072Z,14.50
2019-02-20T12:20:04.477Z,14.70
2019-02-20T12:22:34.856Z,15.30
2019-02-20T12:25:05.349Z,16.00
2019-02-20T12:27:35.706Z,16.20
2019-02-20T12:30:06.812Z,16.20
2019-02-20T12:32:37.199Z,16.60
2019-02-20T12:35:07.568Z,17.10
2019-02-20T12:37:37.935Z,17.50
2019-02-20T12:40:08.405Z,17.50
2019-02-20T12:42:38.868Z,17.60
2019-02-20T12:45:09.883Z,17.70
2019-02-20T12:47:40.235Z,17.70
2019-02-20T12:50:10.680Z,17.60
2019-02-20T12:52:41.061Z,17.80
2019-02-20T12:55:11.477Z,18.10
2019-02-20T12:57:41.830Z,18.30
2019-02-20T13:00:12.664Z,18.10
2019-02-20T13:02:43.116Z,18.20
2019-02-20T13:05:13.745Z,18.20
2019-02-20T13:07:44.113Z,18.00
2019-02-20T13:10:14.490Z,17.90
2019-02-20T13:12:46.735Z,17.80
2019-02-20T13:15:17.013Z,17.80
2019-02-20T13:17:47.421Z,17.80
2019-02-20T13:20:17.822Z,17.50
2019-02-20T13:22:48.308Z,17.40
2019-02-20T13:25:20.869Z,17.30
2019-02-20T13:27:50.769Z,17.30
2019-02-20T13:30:21.162Z,17.40
2019-02-20T13:32:51.586Z,17.50
2019-02-20T13:35:21.972Z,17.50
2019-02-20T13:37:52.443Z,16.90
2019-02-20T13:40:22.842Z,17.30
2019-02-20T13:42:53.339Z,17.60
2019-02-20T13:45:23.816Z,18.00
2019-02-20T13:47:54.298Z,17.90
2019-02-20T13:50:24.953Z,17.70
2019-02-20T13:52:55.411Z,17.80
2019-02-20T13:55:34.258Z,17.90
2019-02-20T13:57:57.952Z,17.70
2019-02-20T14:00:28.423Z,17.80
2019-02-20T14:02:59.081Z,17.90
2019-02-20T14:05:29.497Z,17.40
2019-02-20T14:07:59.932Z,17.80
2019-02-20T14:10:30.498Z,18.00
2019-02-20T14:13:00.965Z,18.20
2019-02-20T14:15:31.401Z,18.60
2019-02-20T14:18:01.800Z,18.60
2019-02-20T14:20:32.262Z,18.50
2019-02-20T14:23:02.877Z,18.60
2019-02-20T14:25:33.266Z,18.80
2019-02-20T14:28:03.649Z,18.80
2019-02-20T14:30:34.099Z,19.00
2019-02-20T14:33:04.983Z,19.20
2019-02-20T14:35:35.358Z,19.20
2019-02-20T14:38:05.857Z,19.50
2019-02-20T14:40:36.415Z,19.00
2019-02-20T14:43:06.890Z,18.60
2019-02-20T14:45:37.284Z,18.60
2019-02-20T14:48:07.802Z,17.80
2019-02-20T14:50:38.337Z,17.60
2019-02-20T14:53:08.795Z,17.60
2019-02-20T14:55:39.238Z,17.70
2019-02-20T14:58:09.753Z,17.50
2019-02-20T15:00:40.193Z,17.40
2019-02-20T15:03:10.659Z,17.30
2019-02-20T15:05:41.109Z,16.60
2019-02-20T15:08:11.503Z,16.50
2019-02-20T15:10:41.925Z,16.40
2019-02-20T15:13:12.346Z,16.40
2019-02-20T15:15:43.297Z,16.40
2019-02-20T15:18:13.775Z,16.60
2019-02-20T15:20:44.358Z,16.80
2019-02-20T15:23:14.845Z,17.00
2019-02-20T15:25:45.454Z,16.90
2019-02-20T15:28:16.000Z,16.70
2019-02-20T15:30:46.388Z,16.70
2019-02-20T15:33:16.843Z,16.30
2019-02-20T15:35:47.315Z,16.30
2019-02-20T15:38:17.766Z,16.10
2019-02-20T15:40:48.349Z,16.10
2019-02-20T15:43:19.067Z,15.90
2019-02-20T15:45:49.642Z,15.60
2019-02-20T15:48:23.265Z,15.40
2019-02-20T15:50:53.110Z,15.30
2019-02-20T15:53:23.708Z,15.00
2019-02-20T15:55:54.421Z,14.80
2019-02-20T15:58:24.835Z,14.80
2019-02-20T16:00:55.305Z,14.80
2019-02-20T16:03:25.682Z,14.70
2019-02-20T16:05:57.186Z,14.50
2019-02-20T16:08:27.647Z,14.40
2019-02-20T16:10:58.120Z,14.40
2019-02-20T16:13:28.606Z,14.40
2019-02-20T16:15:59.066Z,14.30
2019-02-20T16:18:29.450Z,14.30
2019-02-20T16:20:59.919Z,14.30
2019-02-20T16:23:30.351Z,14.30
2019-02-20T16:26:02.255Z,14.20
2019-02-20T16:28:33.984Z,14.00
2019-02-20T16:31:04.574Z,14.00
2019-02-20T16:33:34.965Z,14.10
2019-02-20T16:36:05.530Z,14.00
2019-02-20T16:38:35.919Z,13.70
2019-02-20T16:41:06.319Z,13.70
2019-02-20T16:43:36.770Z,13.60
2019-02-20T16:46:07.175Z,13.50
2019-02-20T16:48:37.610Z,13.20
2019-02-20T16:51:08.006Z,13.30
2019-02-20T16:53:38.776Z,13.20
2019-02-20T16:56:09.253Z,12.90
2019-02-20T16:58:39.698Z,12.70
2019-02-20T17:01:10.146Z,12.50
2019-02-20T17:03:40.544Z,12.40
2019-02-20T17:06:12.785Z,12.20
2019-02-20T17:08:43.007Z,12.00
2019-02-20T17:11:13.461Z,11.80
2019-02-20T17:13:44.550Z,11.70
2019-02-20T17:16:15.046Z,11.70
2019-02-20T17:18:45.464Z,11.80
2019-02-20T17:21:16.181Z,11.80
2019-02-20T17:23:46.647Z,11.70
2019-02-20T17:26:17.131Z,11.50
2019-02-20T17:28:47.588Z,11.30
2019-02-20T17:31:18.018Z,11.20
2019-02-20T17:33:48.443Z,11.30
2019-02-20T17:36:19.106Z,11.20
2019-02-20T17:38:49.501Z,11.20
2019-02-20T17:41:19.984Z,11.10
2019-02-20T17:43:50.417Z,11.20
2019-02-20T17:46:20.796Z,11.30
2019-02-20T17:48:51.307Z,11.30
2019-02-20T17:51:21.709Z,11.10
2019-02-20T17:53:52.163Z,11.10
2019-02-20T17:56:22.578Z,11.20
2019-02-20T17:58:53.871Z,11.30
2019-02-20T18:01:24.729Z,11.10
2019-02-20T18:03:55.148Z,10.90
2019-02-20T18:06:25.595Z,11.00
2019-02-20T18:08:55.965Z,10.90
2019-02-20T18:11:26.518Z,11.00
2019-02-20T18:13:57.004Z,10.90
2019-02-20T18:16:27.402Z,10.70
2019-02-20T18:18:57.877Z,10.70
2019-02-20T18:21:28.293Z,10.60
2019-02-20T18:23:58.805Z,10.70
2019-02-20T18:26:29.226Z,10.70
2019-02-20T18:28:59.704Z,10.70
2019-02-20T18:31:30.120Z,10.60
2019-02-20T18:34:00.507Z,10.50
2019-02-20T18:36:31.071Z,10.30
2019-02-20T18:39:01.474Z,10.20
2019-02-20T18:41:31.986Z,10.40
2019-02-20T18:44:02.386Z,10.40
2019-02-20T18:46:32.958Z,10.40
2019-02-20T18:49:03.479Z,10.40
2019-02-20T18:51:33.869Z,10.40
2019-02-20T18:54:04.368Z,10.30
2019-02-20T18:56:34.851Z,10.30
2019-02-20T18:59:05.325Z,10.20
2019-02-20T19:01:35.793Z,10.20
2019-02-20T19:04:07.974Z,10.30
2019-02-20T19:06:38.735Z,10.10
2019-02-20T19:09:23.702Z,9.70
2019-02-20T19:12:24.914Z,9.60
2019-02-20T19:15:23.073Z,9.70
2019-02-20T19:18:24.473Z,9.30
2019-02-20T19:21:25.807Z,9.30
2019-02-20T19:24:48.617Z,9.40
2019-02-20T19:28:01.890Z,9.30
2019-02-20T19:31:34.815Z,9.20
2019-02-20T19:34:40.738Z,9.10
2019-02-20T19:38:06.504Z,9.20
2019-02-20T19:41:12.725Z,9.30
2019-02-20T19:44:14.578Z,9.10
2019-02-20T19:47:06.196Z,9.20
2019-02-20T19:49:58.159Z,9.10
2019-02-20T19:52:57.456Z,9.10
2019-02-20T19:55:53.515Z,9.00
2019-02-20T19:59:29.164Z,9.00
2019-02-20T20:03:05.018Z,9.00
2019-02-20T20:05:59.509Z,9.00
2019-02-20T20:08:51.887Z,8.80
2019-02-20T20:12:05.367Z,8.60
2019-02-20T20:15:19.747Z,8.60
2019-02-20T20:18:34.419Z,8.50
2019-02-20T20:21:48.980Z,8.30
2019-02-20T20:24:47.054Z,8.10
2019-02-20T20:28:05.238Z,8.20
2019-02-20T20:31:28.849Z,8.30
2019-02-20T20:34:41.041Z,8.30
2019-02-20T20:37:39.026Z,8.30
2019-02-20T20:40:34.834Z,8.30
2019-02-20T20:43:45.038Z,8.30
2019-02-20T20:46:59.161Z,8.40
2019-02-20T20:49:57.258Z,8.40
2019-02-20T20:52:56.095Z,8.40
2019-02-20T20:56:12.912Z,8.40
2019-02-20T20:59:20.345Z,8.40
2019-02-20T21:02:28.534Z,8.50
2019-02-20T21:05:55.684Z,8.40
2019-02-20T21:08:55.757Z,8.40
2019-02-20T21:12:15.372Z,8.40
2019-02-20T21:15:10.835Z,8.30
2019-02-20T21:18:22.241Z,8.30
2019-02-20T21:21:16.369Z,8.40
2019-02-20T21:24:21.737Z,8.30
2019-02-20T21:27:30.378Z,8.30
2019-02-20T21:30:37.452Z,8.10
2019-02-20T21:33:53.529Z,8.00
2019-02-20T21:36:48.462Z,8.00
2019-02-20T21:39:43.437Z,7.90
2019-02-20T21:43:01.320Z,7.80
2019-02-20T21:45:55.278Z,7.70
2019-02-20T21:49:04.670Z,7.70
2019-02-20T21:52:07.000Z,7.70
2019-02-20T21:55:16.111Z,7.60
2019-02-20T21:58:21.692Z,7.50
2019-02-20T22:01:47.631Z,7.60
2019-02-20T22:04:51.647Z,7.60
2019-02-20T22:07:57.905Z,7.60
2019-02-20T22:11:16.386Z,7.60
2019-02-20T22:14:33.006Z,7.50
2019-02-20T22:17:28.890Z,7.50
2019-02-20T22:20:35.061Z,7.50
2019-02-20T22:23:51.760Z,7.40
2019-02-20T22:27:03.014Z,7.40
2019-02-20T22:30:00.026Z,7.50
2019-02-20T22:33:14.114Z,7.40
2019-02-20T22:36:25.515Z,7.10
2019-02-20T22:39:39.326Z,7.00
2019-02-20T22:42:48.974Z,6.80
2019-02-20T22:45:57.858Z,7.00
2019-02-20T22:49:18.714Z,7.10
2019-02-20T22:52:16.690Z,7.00
2019-02-20T22:55:28.054Z,7.10
2019-02-20T22:58:23.144Z,6.90
2019-02-20T23:01:30.442Z,7.00
2019-02-20T23:04:24.723Z,6.90
2019-02-20T23:07:34.906Z,6.90
2019-02-20T23:10:25.165Z,6.80
2019-02-20T23:13:24.022Z,6.80
2019-02-20T23:15:54.417Z,6.80
2019-02-20T23:18:25.049Z,6.80
2019-02-20T23:20:55.449Z,6.70
2019-02-20T23:23:25.843Z,6.60
2019-02-20T23:25:56.538Z,6.70
2019-02-20T23:28:26.970Z,6.60
2019-02-20T23:30:57.359Z,6.60
2019-02-20T23:33:27.762Z,6.60
2019-02-20T23:35:58.182Z,6.60
2019-02-20T23:38:28.555Z,6.50
2019-02-20T23:40:58.931Z,6.60
2019-02-20T23:43:29.342Z,6.40
2019-02-20T23:45:59.754Z,6.30
2019-02-20T23:48:30.166Z,6.40
2019-02-20T23:51:00.541Z,6.40
2019-02-20T23:53:30.989Z,6.40
2019-02-20T23:56:01.446Z,6.30
2019-02-20T23:58:31.833Z,6.30
